Time;durP1;ratioP1;P1;durP2;ratioP2;P2;SDS_P1;SDS_P2;PMS_P1;PMS_P2;Temp;Humidity;BMP_temperature;BMP_pressure;BME280_temperature;BME280_humidity;BME280_pressure;Samples;Min_cycle;Max_cycle;Signal;HPM_P1;HPM_P2
2024/01/22 00:02:13;;;;;;;30.98;16.88;;;0.00;82.40;;;;;;5092451;28;20389;-68
2024/01/22 00:04:38;;;;;;;27.40;15.68;;;0.00;82.30;;;;;;5092034;28;20103;-68
2024/01/22 00:07:04;;;;;;;27.73;15.05;;;0.00;82.60;;;;;;5092647;28;20028;-68
2024/01/22 00:09:29;;;;;;;26.25;14.35;;;-0.10;82.70;;;;;;5092187;28;20024;-67
2024/01/22 00:11:55;;;;;;;27.58;14.38;;;-0.10;82.90;;;;;;5092097;28;20044;-67
2024/01/22 00:14:21;;;;;;;23.38;14.45;;;-0.10;83.00;;;;;;5090915;28;20036;-68
2024/01/22 00:16:47;;;;;;;25.20;15.13;;;-0.10;83.40;;;;;;5091559;28;20031;-68
2024/01/22 00:19:12;;;;;;;23.73;13.80;;;-0.10;83.50;;;;;;5091456;28;20028;-69
2024/01/22 00:21:42;;;;;;;27.55;15.05;;;-0.10;83.80;;;;;;5092234;28;20024;-69
2024/01/22 00:24:09;;;;;;;27.23;14.90;;;-0.20;83.80;;;;;;5092328;28;20028;-67
2024/01/22 00:26:35;;;;;;;22.80;14.23;;;-0.20;83.90;;;;;;5092195;28;20164;-68
2024/01/22 00:29:00;;;;;;;23.73;14.35;;;-0.30;84.10;;;;;;5091808;28;20032;-67
2024/01/22 00:31:26;;;;;;;23.25;13.90;;;-0.30;84.50;;;;;;5091928;28;20020;-68
2024/01/22 00:33:52;;;;;;;25.27;15.02;;;-0.40;84.20;;;;;;5091508;28;20426;-68
2024/01/22 00:36:17;;;;;;;22.17;13.98;;;-0.30;84.90;;;;;;5092464;28;20031;-68
2024/01/22 00:38:43;;;;;;;23.73;15.05;;;-0.30;85.10;;;;;;5091821;28;20105;-67
2024/01/22 00:41:09;;;;;;;27.48;15.00;;;-0.40;84.90;;;;;;5091956;28;20024;-68
2024/01/22 00:43:36;;;;;;;26.77;15.10;;;-0.40;85.20;;;;;;5091836;28;20038;-68
2024/01/22 00:46:01;;;;;;;27.17;15.27;;;-0.30;85.10;;;;;;5091722;28;20475;-67
2024/01/22 00:48:27;;;;;;;22.45;14.45;;;-0.40;85.30;;;;;;5092006;28;20040;-68
2024/01/22 00:50:53;;;;;;;26.33;15.82;;;-0.40;85.40;;;;;;5094868;28;20368;-67
2024/01/22 00:53:19;;;;;;;23.92;15.18;;;-0.50;85.20;;;;;;5111124;28;20361;-68
2024/01/22 00:55:44;;;;;;;27.55;16.08;;;-0.50;85.90;;;;;;5112315;28;20371;-69
2024/01/22 00:58:10;;;;;;;27.13;15.70;;;-0.60;86.10;;;;;;5112372;28;20072;-67
2024/01/22 01:00:36;;;;;;;28.02;16.00;;;-0.60;86.20;;;;;;5105741;28;20062;-69
2024/01/22 01:03:01;;;;;;;25.65;16.05;;;-0.60;86.60;;;;;;5091480;28;20028;-67
2024/01/22 01:05:27;;;;;;;26.25;15.98;;;-0.60;86.80;;;;;;5091914;28;20361;-67
2024/01/22 01:07:52;;;;;;;26.63;16.15;;;-0.70;87.20;;;;;;5091088;28;20024;-68
2024/01/22 01:10:18;;;;;;;26.75;16.13;;;-0.70;87.50;;;;;;5092153;28;20020;-67
2024/01/22 01:12:44;;;;;;;27.70;16.08;;;-0.70;87.60;;;;;;5091481;28;20024;-68
2024/01/22 01:15:10;;;;;;;23.88;14.88;;;-0.80;87.60;;;;;;5092282;28;20104;-67
2024/01/22 01:17:38;;;;;;;28.58;16.17;;;-0.80;88.20;;;;;;5091653;28;20494;-67
2024/01/22 01:20:05;;;;;;;26.98;15.82;;;-0.80;88.30;;;;;;5091443;28;20024;-66
2024/01/22 01:22:33;;;;;;;28.80;17.00;;;-0.90;88.10;;;;;;5091794;28;20031;-67
2024/01/22 01:24:59;;;;;;;32.50;16.55;;;-0.90;88.30;;;;;;5091270;28;20103;-66
2024/01/22 01:27:25;;;;;;;26.52;16.33;;;-0.90;88.90;;;;;;5091361;28;20124;-68
2024/01/22 01:29:52;;;;;;;26.27;16.33;;;-0.90;88.80;;;;;;5091488;28;20025;-68
2024/01/22 01:32:18;;;;;;;27.25;17.30;;;-0.90;89.20;;;;;;5095126;28;20073;-68
2024/01/22 01:34:44;;;;;;;27.83;16.80;;;-0.90;89.20;;;;;;5095293;28;20043;-68
2024/01/22 01:37:09;;;;;;;27.83;15.65;;;-0.90;89.10;;;;;;5095618;28;20522;-68
2024/01/22 01:39:35;;;;;;;31.10;17.70;;;-0.90;89.40;;;;;;5094190;28;20189;-67
2024/01/22 01:42:01;;;;;;;28.65;17.00;;;-1.00;89.30;;;;;;5095150;28;20380;-68
2024/01/22 01:44:49;;;;;;;27.58;16.88;;;-1.00;89.60;;;;;;5094996;28;20028;-67
2024/01/22 01:47:15;;;;;;;29.83;17.63;;;-1.00;89.50;;;;;;5095177;28;20103;-68
2024/01/22 01:49:41;;;;;;;27.67;16.30;;;-1.00;89.70;;;;;;5095105;28;20024;-68
2024/01/22 01:52:12;;;;;;;28.45;18.05;;;-1.00;89.80;;;;;;5095089;28;20028;-67
2024/01/22 01:54:38;;;;;;;30.38;17.48;;;-1.10;89.60;;;;;;5095123;28;20380;-68
2024/01/22 01:57:06;;;;;;;32.33;17.77;;;-1.10;90.00;;;;;;5094676;28;20024;-68
2024/01/22 01:59:34;;;;;;;29.67;19.15;;;-1.20;90.10;;;;;;5094701;28;20024;-67
2024/01/22 02:01:59;;;;;;;29.67;18.45;;;-1.20;90.40;;;;;;5094558;28;20034;-67
2024/01/22 02:04:25;;;;;;;31.27;18.55;;;-1.20;90.40;;;;;;5094817;28;20531;-67
2024/01/22 02:06:51;;;;;;;28.75;18.45;;;-1.30;90.60;;;;;;5092710;28;20068;-68
2024/01/22 02:09:16;;;;;;;29.33;18.38;;;-1.40;90.90;;;;;;5094668;28;20032;-67
2024/01/22 02:11:42;;;;;;;32.80;18.70;;;-1.30;91.10;;;;;;5093978;28;20024;-68
2024/01/22 02:14:07;;;;;;;32.22;19.63;;;-1.30;91.20;;;;;;5094630;28;20053;-67
2024/01/22 02:16:33;;;;;;;30.30;18.60;;;-1.30;91.10;;;;;;5094270;28;20028;-67
2024/01/22 02:18:59;;;;;;;30.95;19.30;;;-1.40;91.10;;;;;;5093812;28;20027;-67
2024/01/22 02:21:24;;;;;;;28.13;18.55;;;-1.40;91.30;;;;;;5094350;28;20031;-67
2024/01/22 02:23:50;;;;;;;34.33;19.52;;;-1.40;91.40;;;;;;5094117;28;20020;-67
2024/01/22 02:26:16;;;;;;;31.67;19.83;;;-1.40;91.40;;;;;;5094145;28;20384;-67
2024/01/22 02:28:41;;;;;;;30.50;18.75;;;-1.30;91.40;;;;;;5094194;28;20492;-68
2024/01/22 02:31:08;;;;;;;35.30;20.67;;;-1.30;91.50;;;;;;5093929;28;20032;-67
2024/01/22 02:33:34;;;;;;;30.25;18.40;;;-1.30;91.20;;;;;;5094253;28;20024;-67
2024/01/22 02:35:59;;;;;;;30.35;18.70;;;-1.30;91.30;;;;;;5093790;28;20035;-67
2024/01/22 02:38:25;;;;;;;30.20;19.23;;;-1.40;91.20;;;;;;5094507;28;20087;-67
2024/01/22 02:40:51;;;;;;;32.78;19.75;;;-1.40;91.30;;;;;;5093805;28;20070;-67
2024/01/22 02:43:17;;;;;;;33.00;19.27;;;-1.40;91.40;;;;;;5093089;28;20035;-68
2024/01/22 02:45:43;;;;;;;34.53;20.20;;;-1.50;91.40;;;;;;5093581;28;20461;-71
2024/01/22 02:48:09;;;;;;;30.67;19.05;;;-1.50;91.50;;;;;;5094093;28;20027;-67
2024/01/22 02:50:34;;;;;;;32.03;19.90;;;-1.50;91.60;;;;;;5094725;28;20028;-68
2024/01/22 02:53:00;;;;;;;32.65;19.73;;;-1.60;91.70;;;;;;5112357;28;20031;-67
2024/01/22 02:55:25;;;;;;;30.27;19.60;;;-1.60;91.80;;;;;;5114038;28;20028;-68
2024/01/22 02:57:51;;;;;;;33.60;20.25;;;-1.50;91.90;;;;;;5113480;28;20137;-68
2024/01/22 03:00:17;;;;;;;28.73;19.27;;;-1.50;91.80;;;;;;5114155;28;20043;-66
2024/01/22 03:02:42;;;;;;;29.58;19.13;;;-1.60;91.90;;;;;;5114438;28;20477;-66
2024/01/22 03:05:08;;;;;;;31.65;20.10;;;-1.60;91.80;;;;;;5113702;28;20433;-66
2024/01/22 03:07:34;;;;;;;31.92;19.83;;;-1.60;91.90;;;;;;5113875;28;20019;-67
2024/01/22 03:09:59;;;;;;;32.33;20.10;;;-1.70;92.10;;;;;;5100290;28;20101;-68
2024/01/22 03:12:25;;;;;;;31.27;19.65;;;-1.70;92.40;;;;;;5093403;28;20375;-66
2024/01/22 03:14:51;;;;;;;33.17;19.92;;;-1.70;92.60;;;;;;5093010;28;20024;-67
2024/01/22 03:17:16;;;;;;;34.75;19.67;;;-1.70;92.70;;;;;;5093501;28;20055;-67
2024/01/22 03:19:42;;;;;;;35.33;21.40;;;-1.60;92.70;;;;;;5093380;28;20055;-67
2024/01/22 03:22:07;;;;;;;34.03;20.25;;;-1.70;92.50;;;;;;5092938;28;20062;-67
2024/01/22 03:24:33;;;;;;;34.53;20.80;;;-1.60;92.70;;;;;;5093322;28;20483;-67
2024/01/22 03:26:59;;;;;;;34.63;20.75;;;-1.60;92.80;;;;;;5092538;28;20028;-67
2024/01/22 03:29:24;;;;;;;31.35;19.83;;;-1.60;92.80;;;;;;5092907;28;20024;-67
2024/01/22 03:31:50;;;;;;;36.80;20.23;;;-1.60;92.70;;;;;;5092957;28;20024;-67
2024/01/22 03:34:15;;;;;;;36.92;20.15;;;-1.60;92.80;;;;;;5093116;28;20059;-66
2024/01/22 03:36:41;;;;;;;34.15;20.77;;;-1.60;92.80;;;;;;5092816;28;20024;-68
2024/01/22 03:39:07;;;;;;;34.47;19.88;;;-1.60;92.90;;;;;;5092683;28;20024;-67
2024/01/22 03:41:33;;;;;;;31.77;19.58;;;-1.60;93.00;;;;;;5092887;28;20121;-67
2024/01/22 03:43:59;;;;;;;28.83;19.10;;;-1.60;93.00;;;;;;5092385;28;20032;-67
2024/01/22 03:46:24;;;;;;;33.05;20.63;;;-1.60;93.00;;;;;;5092963;28;20020;-67
2024/01/22 03:48:50;;;;;;;33.28;20.40;;;-1.60;92.90;;;;;;5092476;28;20375;-67
2024/01/22 03:51:16;;;;;;;32.67;20.02;;;-1.60;92.90;;;;;;5092918;28;20353;-67
2024/01/22 03:53:41;;;;;;;32.63;20.48;;;-1.60;93.10;;;;;;5092260;28;20123;-66
2024/01/22 03:56:07;;;;;;;31.25;19.33;;;-1.60;93.00;;;;;;5092307;28;20541;-67
2024/01/22 03:58:33;;;;;;;33.85;20.38;;;-1.60;92.90;;;;;;5092697;28;20036;-67
2024/01/22 04:01:00;;;;;;;33.33;20.27;;;-1.60;92.90;;;;;;5092252;28;20476;-67
2024/01/22 04:03:26;;;;;;;35.65;21.48;;;-1.70;92.90;;;;;;5092656;28;20060;-66
2024/01/22 04:05:52;;;;;;;30.90;18.65;;;-1.70;93.10;;;;;;5092237;28;20436;-67
2024/01/22 04:08:18;;;;;;;35.22;21.52;;;-1.70;93.20;;;;;;5092130;28;20058;-67
2024/01/22 04:10:43;;;;;;;34.10;20.00;;;-1.70;93.00;;;;;;5092476;28;20031;-67
2024/01/22 04:13:09;;;;;;;35.08;20.58;;;-1.70;93.00;;;;;;5091987;28;20085;-68
2024/01/22 04:15:35;;;;;;;37.03;20.55;;;-1.70;93.00;;;;;;5092489;28;20032;-68
2024/01/22 04:18:00;;;;;;;32.55;19.85;;;-1.70;93.10;;;;;;5092063;28;20055;-68
2024/01/22 04:20:26;;;;;;;34.50;20.63;;;-1.70;93.10;;;;;;5090816;28;20035;-67
2024/01/22 04:22:52;;;;;;;33.78;19.40;;;-1.60;93.20;;;;;;5091967;28;20465;-67
2024/01/22 04:25:18;;;;;;;31.45;19.38;;;-1.60;93.20;;;;;;5092444;28;20024;-67
2024/01/22 04:27:43;;;;;;;33.10;19.58;;;-1.70;93.10;;;;;;5091998;28;20020;-67
2024/01/22 04:30:10;;;;;;;32.08;19.85;;;-1.70;93.10;;;;;;5090803;28;20056;-68
2024/01/22 04:32:35;;;;;;;32.33;20.73;;;-1.70;93.10;;;;;;5091405;28;20036;-68
2024/01/22 04:35:02;;;;;;;34.65;20.95;;;-1.70;93.20;;;;;;5088773;28;20024;-68
2024/01/22 04:37:28;;;;;;;34.38;20.70;;;-1.70;93.30;;;;;;5091619;28;20028;-67
2024/01/22 04:39:54;;;;;;;28.90;18.70;;;-1.70;93.30;;;;;;5091053;28;20024;-67
2024/01/22 04:42:20;;;;;;;33.97;20.05;;;-1.70;93.30;;;;;;5091680;28;20437;-66
2024/01/22 04:44:46;;;;;;;31.55;19.65;;;-1.70;93.40;;;;;;5091646;28;20027;-68
2024/01/22 04:47:12;;;;;;;33.15;19.48;;;-1.70;93.40;;;;;;5091066;28;20487;-68
2024/01/22 04:49:38;;;;;;;32.17;19.33;;;-1.70;93.40;;;;;;5091649;28;20020;-66
2024/01/22 04:52:04;;;;;;;29.85;19.52;;;-1.70;93.40;;;;;;5091104;28;20058;-67
2024/01/22 04:54:29;;;;;;;31.48;19.52;;;-1.80;93.40;;;;;;5091569;28;20024;-67
2024/01/22 04:56:55;;;;;;;32.67;20.42;;;-1.80;93.40;;;;;;5091439;28;20118;-68
2024/01/22 04:59:21;;;;;;;31.45;20.25;;;-1.80;93.50;;;;;;5094575;28;20015;-67
2024/01/22 05:01:47;;;;;;;32.42;19.80;;;-1.80;93.40;;;;;;5112292;28;20056;-67
2024/01/22 05:04:12;;;;;;;33.47;20.08;;;-1.90;93.60;;;;;;5111658;28;20038;-67
2024/01/22 05:06:38;;;;;;;34.13;20.52;;;-1.90;93.80;;;;;;5095058;28;20032;-67
2024/01/22 05:09:04;;;;;;;35.10;20.98;;;-1.90;94.00;;;;;;5095240;28;20464;-67
2024/01/22 05:11:30;;;;;;;32.17;19.77;;;-1.90;94.10;;;;;;5095403;28;20054;-69
2024/01/22 05:13:56;;;;;;;29.63;18.75;;;-1.90;94.30;;;;;;5094796;28;20040;-67
2024/01/22 05:16:22;;;;;;;32.85;19.25;;;-1.90;94.30;;;;;;5093075;28;20495;-68
2024/01/22 05:18:48;;;;;;;32.83;20.15;;;-1.90;94.10;;;;;;5093877;28;20031;-68
2024/01/22 05:21:14;;;;;;;32.92;20.50;;;-1.90;94.20;;;;;;5094767;28;20099;-67
2024/01/22 05:23:41;;;;;;;33.00;20.95;;;-1.90;94.10;;;;;;5094490;28;20484;-66
2024/01/22 05:26:25;;;;;;;33.75;20.13;;;-1.90;94.20;;;;;;5094570;28;20427;-66
2024/01/22 05:28:51;;;;;;;32.28;19.75;;;-1.90;94.20;;;;;;5094130;28;20020;-67
2024/01/22 05:31:16;;;;;;;31.30;20.55;;;-1.90;94.00;;;;;;5094780;28;20027;-67
2024/01/22 05:33:42;;;;;;;35.53;19.80;;;-1.90;94.10;;;;;;5093625;28;20491;-67
2024/01/22 05:36:09;;;;;;;31.45;19.83;;;-2.00;94.00;;;;;;5094530;28;20020;-68
2024/01/22 05:38:34;;;;;;;32.03;20.75;;;-2.00;94.30;;;;;;5094780;28;20032;-67
2024/01/22 05:41:00;;;;;;;31.50;19.60;;;-2.00;94.40;;;;;;5094099;28;20016;-69
2024/01/22 05:43:26;;;;;;;33.17;20.48;;;-2.10;94.70;;;;;;5094897;28;20028;-68
2024/01/22 05:45:51;;;;;;;32.78;20.30;;;-2.00;94.70;;;;;;5094718;28;20526;-67
2024/01/22 05:48:17;;;;;;;35.55;21.20;;;-2.00;94.80;;;;;;5094014;28;20020;-67
2024/01/22 05:50:43;;;;;;;37.72;19.95;;;-2.00;94.70;;;;;;5093296;28;20024;-67
2024/01/22 05:53:08;;;;;;;32.22;19.95;;;-2.00;94.70;;;;;;5094147;28;20100;-67
2024/01/22 05:55:35;;;;;;;34.58;21.15;;;-2.00;94.60;;;;;;5095022;28;20028;-68
2024/01/22 05:58:00;;;;;;;33.30;20.75;;;-2.00;94.70;;;;;;5091641;28;20024;-67
2024/01/22 06:00:26;;;;;;;43.47;21.88;;;-2.00;94.60;;;;;;5093938;28;20056;-68
2024/01/22 06:02:52;;;;;;;36.00;22.25;;;-2.00;94.50;;;;;;5094319;28;20038;-68
2024/01/22 06:05:18;;;;;;;31.40;20.33;;;-2.00;94.50;;;;;;5093802;28;20061;-67
2024/01/22 06:07:44;;;;;;;34.20;20.67;;;-2.00;94.60;;;;;;5094445;28;20032;-68
2024/01/22 06:10:09;;;;;;;38.38;21.20;;;-2.00;94.70;;;;;;5094017;28;20517;-67
2024/01/22 06:12:35;;;;;;;38.38;21.85;;;-2.00;94.70;;;;;;5094073;28;20032;-67
2024/01/22 06:15:01;;;;;;;39.15;22.25;;;-2.10;94.80;;;;;;5090140;28;20024;-68
2024/01/22 06:17:33;;;;;;;35.42;21.50;;;-2.10;94.80;;;;;;5092917;28;20020;-68
2024/01/22 06:20:00;;;;;;;34.78;22.60;;;-2.10;94.70;;;;;;5094201;28;20028;-68
2024/01/22 06:22:26;;;;;;;37.63;22.38;;;-2.10;94.90;;;;;;5093567;28;20070;-67
2024/01/22 06:24:52;;;;;;;35.08;22.10;;;-2.10;94.80;;;;;;5094162;28;20051;-67
2024/01/22 06:27:17;;;;;;;37.45;22.58;;;-2.10;94.80;;;;;;5093695;28;20529;-67
2024/01/22 06:29:43;;;;;;;37.85;24.55;;;-2.10;95.00;;;;;;5094373;28;20503;-68
2024/01/22 06:32:09;;;;;;;41.78;25.08;;;-2.10;95.00;;;;;;5093729;28;20043;-68
2024/01/22 06:34:37;;;;;;;33.40;22.40;;;-2.10;94.90;;;;;;5094194;28;20043;-68
2024/01/22 06:37:04;;;;;;;33.33;21.85;;;-2.10;94.70;;;;;;5093615;28;20121;-67
2024/01/22 06:39:30;;;;;;;33.65;22.90;;;-2.10;94.70;;;;;;5094278;28;20032;-67
2024/01/22 06:41:55;;;;;;;36.33;23.13;;;-2.00;94.80;;;;;;5093940;28;20047;-68
2024/01/22 06:44:21;;;;;;;38.65;23.52;;;-2.10;94.50;;;;;;5093713;28;20537;-67
2024/01/22 06:46:47;;;;;;;34.40;23.15;;;-2.10;94.40;;;;;;5093531;28;20103;-66
2024/01/22 06:49:12;;;;;;;40.03;23.90;;;-2.10;94.30;;;;;;5093332;28;20041;-68
2024/01/22 06:51:38;;;;;;;41.80;23.50;;;-2.10;94.50;;;;;;5093513;28;20078;-67
2024/01/22 06:54:04;;;;;;;37.22;22.63;;;-2.10;94.60;;;;;;5093018;28;20032;-68
2024/01/22 06:56:29;;;;;;;35.90;23.33;;;-2.10;94.50;;;;;;5093824;28;20024;-67
2024/01/22 06:58:56;;;;;;;38.70;23.42;;;-2.10;94.70;;;;;;5093603;28;20062;-67
2024/01/22 07:01:21;;;;;;;39.00;24.20;;;-2.10;94.90;;;;;;5093260;28;20060;-67
2024/01/22 07:03:47;;;;;;;39.17;24.00;;;-2.10;94.90;;;;;;5092797;28;20574;-68
2024/01/22 07:06:12;;;;;;;37.90;22.77;;;-2.10;94.90;;;;;;5108365;28;20484;-68
2024/01/22 07:08:38;;;;;;;32.97;21.67;;;-2.00;95.00;;;;;;5113919;28;20071;-66
2024/01/22 07:11:05;;;;;;;34.95;22.98;;;-2.00;94.60;;;;;;5113203;28;20023;-69
2024/01/22 07:13:32;;;;;;;36.60;24.10;;;-2.10;94.60;;;;;;5113580;28;20028;-68
2024/01/22 07:16:00;;;;;;;40.28;22.70;;;-2.10;94.60;;;;;;5113706;28;20055;-68
2024/01/22 07:18:26;;;;;;;38.55;24.00;;;-2.00;94.90;;;;;;5113770;28;20028;-67
2024/01/22 07:20:53;;;;;;;37.33;23.02;;;-2.00;94.60;;;;;;5113635;28;20031;-68
2024/01/22 07:23:19;;;;;;;36.58;23.52;;;-1.90;94.40;;;;;;5113314;28;20031;-67
2024/01/22 07:25:44;;;;;;;36.00;22.27;;;-1.90;94.20;;;;;;5113663;28;20028;-67
2024/01/22 07:28:11;;;;;;;37.65;23.48;;;-1.90;94.10;;;;;;5112413;28;20035;-67
2024/01/22 07:30:37;;;;;;;38.03;22.73;;;-1.90;93.90;;;;;;5113497;28;20020;-67
2024/01/22 07:33:03;;;;;;;31.63;20.35;;;-1.90;93.80;;;;;;5113050;28;20130;-68
2024/01/22 07:35:29;;;;;;;41.40;22.48;;;-2.00;93.70;;;;;;5113470;28;20476;-67
2024/01/22 07:37:55;;;;;;;33.20;21.10;;;-2.00;93.90;;;;;;5113347;28;20034;-67
2024/01/22 07:40:21;;;;;;;32.28;20.30;;;-1.90;94.00;;;;;;5112964;28;20023;-67
2024/01/22 07:42:47;;;;;;;33.40;21.08;;;-1.90;94.10;;;;;;5112948;28;20444;-67
2024/01/22 07:45:14;;;;;;;32.72;21.00;;;-1.90;94.20;;;;;;5112364;28;20499;-67
2024/01/22 07:47:39;;;;;;;31.67;20.63;;;-1.90;94.30;;;;;;5113076;28;20032;-67
2024/01/22 07:50:06;;;;;;;34.83;21.10;;;-1.90;94.10;;;;;;5112754;28;20031;-68
2024/01/22 07:52:34;;;;;;;35.30;21.02;;;-1.80;94.20;;;;;;5113219;28;20024;-68
2024/01/22 07:55:01;;;;;;;35.05;20.65;;;-1.80;94.00;;;;;;5111244;28;20028;-68
2024/01/22 07:57:27;;;;;;;33.92;20.52;;;-1.80;94.10;;;;;;5112317;28;20438;-68
2024/01/22 07:59:53;;;;;;;33.45;19.65;;;-1.70;94.10;;;;;;5112677;28;20129;-67
2024/01/22 08:02:18;;;;;;;39.33;21.08;;;-1.60;93.90;;;;;;5112472;28;20024;-67
2024/01/22 08:04:45;;;;;;;32.33;20.23;;;-1.40;94.20;;;;;;5112983;28;20032;-67
2024/01/22 08:07:11;;;;;;;35.05;20.60;;;-1.20;94.20;;;;;;5112468;28;20026;-67
2024/01/22 08:09:36;;;;;;;28.50;18.67;;;-1.00;93.70;;;;;;5112664;28;20019;-69
2024/01/22 08:12:03;;;;;;;32.55;19.73;;;-0.80;93.40;;;;;;5112528;28;20196;-69
2024/01/22 08:14:30;;;;;;;34.05;19.88;;;-0.70;92.80;;;;;;5094997;28;20417;-69
2024/01/22 08:16:56;;;;;;;29.67;18.08;;;-0.60;92.40;;;;;;5092480;28;20028;-68
2024/01/22 08:19:22;;;;;;;31.58;18.60;;;-0.50;92.00;;;;;;5091881;28;20131;-68
2024/01/22 08:21:48;;;;;;;31.17;19.00;;;-0.40;91.30;;;;;;5092451;28;20547;-68
2024/01/22 08:24:14;;;;;;;30.83;18.55;;;-0.40;90.90;;;;;;5091853;28;20036;-67
2024/01/22 08:26:40;;;;;;;31.65;18.85;;;-0.40;90.60;;;;;;5091925;28;20020;-67
2024/01/22 08:29:06;;;;;;;33.10;19.13;;;-0.40;90.40;;;;;;5090746;28;20510;-68
2024/01/22 08:31:31;;;;;;;31.10;18.45;;;-0.40;90.20;;;;;;5092119;28;20051;-68
2024/01/22 08:33:57;;;;;;;31.23;18.42;;;-0.40;90.20;;;;;;5092262;28;20028;-68
2024/01/22 08:36:23;;;;;;;29.45;18.30;;;-0.40;89.70;;;;;;5091382;28;20082;-67
2024/01/22 08:38:48;;;;;;;30.67;17.80;;;-0.40;89.60;;;;;;5092336;28;20031;-67
2024/01/22 08:41:14;;;;;;;30.33;18.20;;;-0.40;89.70;;;;;;5090929;28;20103;-68
2024/01/22 08:43:40;;;;;;;31.17;18.25;;;-0.40;89.50;;;;;;5091684;28;20028;-67
2024/01/22 08:46:05;;;;;;;33.03;18.52;;;-0.40;89.50;;;;;;5092013;28;20119;-68
2024/01/22 08:48:31;;;;;;;30.33;19.02;;;-0.40;89.40;;;;;;5091513;28;20094;-68
2024/01/22 08:50:57;;;;;;;31.17;18.00;;;-0.40;89.40;;;;;;5092072;28;20091;-68
2024/01/22 08:53:23;;;;;;;32.00;18.90;;;-0.40;89.90;;;;;;5091154;28;20430;-68
2024/01/22 08:55:49;;;;;;;30.50;18.52;;;-0.40;89.80;;;;;;5091997;28;20036;-68
2024/01/22 08:58:15;;;;;;;30.70;18.35;;;-0.40;89.70;;;;;;5091599;28;20035;-67
2024/01/22 09:00:41;;;;;;;30.90;17.48;;;-0.40;89.30;;;;;;5091867;28;20353;-67
2024/01/22 09:03:07;;;;;;;31.15;18.55;;;-0.40;89.60;;;;;;5091699;28;20043;-67
2024/01/22 09:05:33;;;;;;;29.42;17.92;;;-0.40;89.80;;;;;;5091219;28;20020;-67
2024/01/22 09:07:59;;;;;;;28.70;17.52;;;-0.30;89.80;;;;;;5107030;28;20099;-69
2024/01/22 09:10:26;;;;;;;28.63;17.40;;;-0.30;89.90;;;;;;5111876;28;20119;-68
2024/01/22 09:12:52;;;;;;;28.50;17.67;;;-0.20;90.00;;;;;;5111071;28;20111;-69
2024/01/22 09:15:18;;;;;;;26.75;16.60;;;-0.20;89.80;;;;;;5090306;28;20024;-68
2024/01/22 09:17:44;;;;;;;31.10;16.45;;;-0.20;89.50;;;;;;5091816;28;20103;-68
2024/01/22 09:20:10;;;;;;;29.65;17.08;;;-0.10;89.50;;;;;;5091816;28;20017;-67
2024/01/22 09:22:37;;;;;;;25.02;16.73;;;0.00;89.30;;;;;;5091763;28;20071;-69
2024/01/22 09:25:03;;;;;;;28.23;17.00;;;0.00;89.10;;;;;;5091631;28;20410;-68
2024/01/22 09:27:29;;;;;;;29.25;17.42;;;0.00;89.40;;;;;;5090952;28;20469;-68
2024/01/22 09:29:55;;;;;;;25.80;17.20;;;0.10;89.50;;;;;;5092038;28;20119;-68
2024/01/22 09:32:21;;;;;;;29.50;15.75;;;0.20;89.10;;;;;;5091340;28;20020;-68
2024/01/22 09:34:47;;;;;;;27.65;16.17;;;0.20;88.70;;;;;;5091563;28;20368;-67
2024/01/22 09:37:12;;;;;;;28.13;15.95;;;0.30;88.30;;;;;;5091262;28;20033;-67
2024/01/22 09:39:38;;;;;;;24.20;15.35;;;0.40;87.90;;;;;;5091511;28;20102;-68
2024/01/22 09:42:05;;;;;;;26.50;15.57;;;0.50;87.40;;;;;;5091571;28;20025;-67
2024/01/22 09:44:31;;;;;;;24.85;15.30;;;0.40;86.60;;;;;;5091055;28;20443;-68
2024/01/22 09:46:57;;;;;;;22.50;14.35;;;0.50;87.10;;;;;;5091524;28;20032;-68
2024/01/22 09:49:23;;;;;;;24.77;15.18;;;0.60;86.50;;;;;;5091069;28;20542;-68
2024/01/22 09:51:51;;;;;;;26.77;15.35;;;0.60;86.20;;;;;;5092551;28;20020;-68
2024/01/22 09:54:18;;;;;;;30.38;15.45;;;0.70;85.70;;;;;;5094576;28;20032;-67
2024/01/22 09:57:07;;;;;;;22.77;14.70;;;0.80;85.20;;;;;;5095055;28;20449;-67
2024/01/22 09:59:33;;;;;;;24.08;14.57;;;0.90;84.90;;;;;;5093082;28;20028;-69
2024/01/22 10:02:00;;;;;;;26.45;14.90;;;1.00;84.30;;;;;;5095060;28;20516;-69
2024/01/22 10:04:26;;;;;;;30.52;15.60;;;1.10;84.50;;;;;;5094813;28;20115;-68
2024/01/22 10:06:52;;;;;;;22.63;14.13;;;1.20;85.10;;;;;;5094803;28;20442;-67
2024/01/22 10:09:18;;;;;;;24.33;15.27;;;1.30;84.80;;;;;;5094558;28;20112;-68
2024/01/22 10:11:45;;;;;;;21.40;14.02;;;1.40;84.10;;;;;;5094475;28;20099;-68
2024/01/22 10:14:11;;;;;;;22.60;13.73;;;1.50;83.30;;;;;;5094390;28;20032;-68
2024/01/22 10:16:37;;;;;;;24.58;14.60;;;1.60;82.90;;;;;;5094326;28;20020;-68
2024/01/22 10:19:05;;;;;;;22.25;14.63;;;1.70;82.50;;;;;;5094673;28;20016;-68
2024/01/22 10:21:31;;;;;;;23.92;14.77;;;1.70;82.10;;;;;;5094191;28;20035;-67
2024/01/22 10:24:07;;;;;;;23.33;13.80;;;1.80;81.20;;;;;;5094452;28;20024;-67
2024/01/22 10:26:33;;;;;;;24.20;13.95;;;1.80;81.30;;;;;;5094111;28;20031;-68
2024/01/22 10:29:22;;;;;;;21.50;13.60;;;1.90;80.80;;;;;;5094358;28;20077;-68
2024/01/22 10:32:01;;;;;;;19.45;13.48;;;2.00;80.20;;;;;;5094595;28;20472;-68
2024/01/22 10:34:29;;;;;;;27.40;13.57;;;2.00;80.20;;;;;;5093758;28;20032;-68
2024/01/22 10:37:08;;;;;;;22.80;13.77;;;2.10;79.50;;;;;;5094654;28;20546;-68
2024/01/22 10:39:36;;;;;;;24.40;14.15;;;2.10;79.10;;;;;;5093613;28;20024;-67
2024/01/22 10:42:09;;;;;;;23.38;12.88;;;2.20;79.20;;;;;;5093527;28;20032;-69
2024/01/22 10:44:38;;;;;;;21.60;12.73;;;2.20;79.10;;;;;;5093304;28;20437;-69
2024/01/22 10:47:05;;;;;;;23.27;13.05;;;2.30;78.60;;;;;;5093689;28;20024;-69
2024/01/22 10:49:32;;;;;;;19.00;11.50;;;2.30;78.40;;;;;;5093368;28;20119;-69
2024/01/22 10:51:59;;;;;;;20.92;12.77;;;2.40;78.10;;;;;;5093670;28;20024;-67
2024/01/22 10:54:26;;;;;;;21.25;12.57;;;2.40;77.90;;;;;;5093155;28;20028;-67
2024/01/22 10:57:01;;;;;;;20.73;12.13;;;2.50;77.80;;;;;;5093640;28;20024;-68
2024/01/22 10:59:30;;;;;;;19.13;13.00;;;2.50;77.20;;;;;;5108902;28;20055;-68
2024/01/22 11:01:58;;;;;;;19.77;12.45;;;2.60;77.10;;;;;;5113985;28;20035;-69
2024/01/22 11:04:29;;;;;;;19.80;12.35;;;2.70;76.40;;;;;;5112672;28;20318;-69
2024/01/22 11:06:59;;;;;;;22.92;12.85;;;2.80;76.30;;;;;;5113831;28;20032;-68
2024/01/22 11:09:32;;;;;;;20.60;12.17;;;2.90;76.30;;;;;;5113436;28;20039;-68
2024/01/22 11:12:07;;;;;;;21.10;11.95;;;3.10;77.00;;;;;;5113313;28;20248;-68
2024/01/22 11:14:34;;;;;;;21.67;12.60;;;3.20;76.40;;;;;;5113171;28;20024;-68
2024/01/22 11:17:01;;;;;;;21.95;13.15;;;3.30;76.10;;;;;;5113463;28;20046;-68
2024/01/22 11:19:27;;;;;;;20.70;12.00;;;3.40;75.50;;;;;;5112496;28;20024;-68
2024/01/22 11:21:53;;;;;;;23.23;13.18;;;3.50;75.00;;;;;;5096230;28;20031;-68
2024/01/22 11:24:19;;;;;;;22.35;12.23;;;3.60;74.70;;;;;;5093014;28;20089;-68
2024/01/22 11:26:54;;;;;;;23.42;11.63;;;3.80;74.30;;;;;;5093313;28;20055;-69
2024/01/22 11:29:24;;;;;;;23.60;13.93;;;3.90;74.10;;;;;;5092517;28;20389;-70
2024/01/22 11:31:49;;;;;;;20.77;11.93;;;4.00;73.50;;;;;;5092915;28;20035;-68
2024/01/22 11:34:38;;;;;;;18.77;12.07;;;4.20;72.50;;;;;;5092800;28;20028;-67
2024/01/22 11:37:04;;;;;;;20.83;11.77;;;4.30;72.10;;;;;;5092326;28;20032;-69
2024/01/22 11:39:32;;;;;;;24.30;12.65;;;4.50;72.30;;;;;;5092565;28;20039;-68
2024/01/22 11:41:58;;;;;;;20.75;12.82;;;4.50;71.30;;;;;;5093218;28;20031;-68
2024/01/22 11:44:26;;;;;;;19.77;13.40;;;4.60;71.60;;;;;;5092656;28;20032;-68
2024/01/22 11:47:10;;;;;;;17.98;12.05;;;4.70;70.70;;;;;;5092720;28;20413;-68
2024/01/22 11:49:36;;;;;;;19.63;12.52;;;4.80;70.70;;;;;;5092243;28;20031;-69
2024/01/22 11:52:11;;;;;;;20.17;11.90;;;4.80;69.70;;;;;;5092453;28;20024;-68
2024/01/22 11:54:38;;;;;;;19.52;11.10;;;4.80;70.10;;;;;;5091638;28;20085;-68
2024/01/22 11:57:04;;;;;;;21.30;12.23;;;4.80;68.70;;;;;;5092272;28;20032;-68
2024/01/22 11:59:30;;;;;;;19.98;11.50;;;4.70;67.90;;;;;;5091505;28;20480;-68
2024/01/22 12:02:06;;;;;;;21.08;12.35;;;4.70;67.30;;;;;;5092461;28;20472;-68
2024/01/22 12:04:33;;;;;;;24.27;13.38;;;4.80;67.90;;;;;;5090420;28;20526;-68
2024/01/22 12:06:58;;;;;;;22.17;12.00;;;4.80;67.60;;;;;;5092041;28;20217;-68
2024/01/22 12:09:24;;;;;;;21.05;11.73;;;4.80;67.20;;;;;;5091760;28;20171;-69
2024/01/22 12:11:51;;;;;;;21.27;12.15;;;4.70;67.20;;;;;;5092164;28;20020;-67
2024/01/22 12:14:17;;;;;;;21.50;11.77;;;4.70;66.30;;;;;;5092021;28;20119;-69
2024/01/22 12:16:42;;;;;;;20.58;11.75;;;4.70;66.90;;;;;;5091433;28;20114;-69
2024/01/22 12:19:11;;;;;;;22.33;12.50;;;4.60;66.80;;;;;;5092010;28;20035;-69
2024/01/22 12:21:40;;;;;;;18.38;11.35;;;4.60;66.30;;;;;;5091552;28;20043;-68
2024/01/22 12:24:15;;;;;;;19.92;11.95;;;4.50;66.30;;;;;;5091948;28;20348;-69
2024/01/22 12:26:41;;;;;;;18.63;11.43;;;4.50;66.90;;;;;;5091719;28;20114;-68
2024/01/22 12:29:17;;;;;;;25.52;12.07;;;4.40;66.70;;;;;;5091904;28;20119;-68